Íslenskir flugvellir

Veldu flugvelli í þeirri röð sem þeir eiga að birtast og styddu á hnappinn

Uppfært síðast 20.09.2019 - kl. 08:20

SIGMET síðustu 6 klst.

Engin SIGMET skeyti bárust síðustu 6 klst.

Egilsstaðir

METAR síðustu 3 klst

TímiSkeyti
2019-09-20 08.00METAR BIEG 200800Z 15005KT 9999 FEW040 BKN100 OVC180 15/10 Q1004 RMK WIND GAGNHEIDI 24016KT
2019-09-20 07.00METAR BIEG 200700Z 17005KT 9999 FEW040 SCT100 OVC180 13/09 Q1004 RMK WIND GAGNHEIDI 23018KT
2019-09-20 06.00METAR BIEG 200600Z 00000KT CAVOK 12/09 Q1004 RMK WIND GAGNHEIDI 23019KT

TAF

TAFBIEG2019-09-20 07.45Z20090919010KT 9999 -RA SCT035 BKN050 TX18/2015Z TN08/2103Z BECMG 2010/2012 9999 NSW FEW050

Allur vindur er réttvísandi bæði í Metar og frá sjálfvirkum veðurstöðvum




Aðrir tengdir vefir



Þetta vefsvæði byggir á Eplica